Terminal Aerodrome Forecast
Issued by NWS

Home | Current Version | Previous Version | Text Only | Print | Product List | Glossary On
Versions: 1 2 3 4 5 6 7 8 9 10 11 12 13 14 15 16 17 18 19 20
000
FTUS44 KBMX 301151
TAFMGM
TAF
KMGM 301151Z 3012/0112 VRB03KT P6SM BKN200
     FM301500 16008KT P6SM BKN080 BKN200
     FM301800 17011KT P6SM VCTS BKN045CB BKN200
     FM010000 20006KT 5SM TSRA BKN040CB BKN100
     FM010400 VRB03KT P6SM VCSH BKN030=

USA.gov is the U.S. government's official web portal to all federal, state and local government web resources and services.